createdAt,value
2017-05-26T00:00:22.807Z,17.10
2017-05-26T00:02:50.374Z,18.20
2017-05-26T00:05:17.975Z,18.42
2017-05-26T00:07:46.337Z,16.72
2017-05-26T00:10:14.736Z,18.40
2017-05-26T00:12:42.231Z,21.83
2017-05-26T00:15:10.673Z,18.45
2017-05-26T00:17:38.205Z,18.85
2017-05-26T00:20:05.704Z,22.72
2017-05-26T00:22:33.511Z,19.52
2017-05-26T00:25:01.340Z,20.43
2017-05-26T00:27:29.923Z,18.58
2017-05-26T00:29:57.505Z,17.47
2017-05-26T00:32:25.079Z,17.68
2017-05-26T00:34:53.371Z,17.92
2017-05-26T00:37:20.875Z,18.58
2017-05-26T00:39:48.403Z,15.05
2017-05-26T00:42:16.292Z,16.67
2017-05-26T00:44:44.596Z,17.27
2017-05-26T00:47:12.163Z,19.88
2017-05-26T00:49:40.480Z,18.02
2017-05-26T00:52:08.015Z,17.87
2017-05-26T00:54:35.526Z,18.92
2017-05-26T00:57:03.412Z,21.98
2017-05-26T00:59:30.964Z,18.05
2017-05-26T01:01:59.325Z,19.68
2017-05-26T01:04:27.651Z,20.92
2017-05-26T01:06:55.945Z,22.62
2017-05-26T01:09:24.544Z,17.13
2017-05-26T01:11:52.805Z,20.45
2017-05-26T01:14:21.092Z,20.35
2017-05-26T01:16:48.886Z,19.37
2017-05-26T01:19:17.176Z,18.58
2017-05-26T01:21:44.782Z,18.60
2017-05-26T01:24:13.108Z,19.53
2017-05-26T01:26:40.674Z,17.03
2017-05-26T01:29:08.981Z,17.12
2017-05-26T01:31:37.092Z,17.00
2017-05-26T01:34:05.359Z,19.07
2017-05-26T01:36:33.655Z,17.83
2017-05-26T01:39:01.195Z,19.33
2017-05-26T01:41:29.528Z,17.77
2017-05-26T01:43:57.111Z,17.25
2017-05-26T01:46:25.377Z,17.48
2017-05-26T01:48:52.933Z,20.77
2017-05-26T01:51:20.477Z,26.20
2017-05-26T01:53:48.004Z,19.35
2017-05-26T01:56:15.584Z,17.12
2017-05-26T01:58:43.105Z,17.37
2017-05-26T02:01:11.371Z,20.87
2017-05-26T02:03:39.640Z,17.88
2017-05-26T02:06:07.213Z,19.22
2017-05-26T02:08:35.529Z,15.50
2017-05-26T02:11:03.055Z,23.00
2017-05-26T02:13:30.587Z,18.67
2017-05-26T02:15:58.900Z,16.95
2017-05-26T02:18:27.162Z,19.90
2017-05-26T02:20:55.463Z,18.60
2017-05-26T02:23:23.791Z,18.58
2017-05-26T02:25:52.083Z,17.55
2017-05-26T02:28:19.675Z,17.62
2017-05-26T02:30:47.179Z,17.55
2017-05-26T02:33:14.672Z,22.12
2017-05-26T02:35:42.988Z,19.42
2017-05-26T02:38:11.308Z,19.70
2017-05-26T02:40:39.939Z,21.97
2017-05-26T02:43:07.704Z,20.38
2017-05-26T02:45:35.229Z,21.77
2017-05-26T02:48:03.025Z,19.13
2017-05-26T02:50:30.575Z,17.78
2017-05-26T02:52:59.264Z,16.87
2017-05-26T02:55:27.584Z,18.67
2017-05-26T02:57:55.085Z,19.72
2017-05-26T03:00:22.652Z,20.92
2017-05-26T03:02:50.935Z,20.35
2017-05-26T03:05:18.791Z,19.73
2017-05-26T03:07:47.094Z,21.12
2017-05-26T03:10:14.593Z,20.13
2017-05-26T03:12:42.136Z,22.50
2017-05-26T03:15:09.643Z,25.35
2017-05-26T03:17:37.983Z,20.22
2017-05-26T03:20:06.318Z,17.62
2017-05-26T03:22:34.629Z,20.82
2017-05-26T03:25:02.133Z,16.78
2017-05-26T03:27:30.399Z,19.77
2017-05-26T03:29:57.976Z,18.67
2017-05-26T03:32:25.543Z,16.47
2017-05-26T03:34:53.112Z,21.95
2017-05-26T03:37:21.648Z,17.30
2017-05-26T03:39:49.516Z,18.37
2017-05-26T03:42:17.842Z,17.17
2017-05-26T03:44:45.338Z,17.03
2017-05-26T03:47:12.851Z,16.98
2017-05-26T03:49:40.716Z,15.18
2017-05-26T03:52:08.385Z,14.92
2017-05-26T03:54:35.924Z,15.60
2017-05-26T03:57:03.487Z,15.23
2017-05-26T03:59:32.133Z,16.75
2017-05-26T04:02:00.404Z,17.57
2017-05-26T04:04:28.035Z,17.00
2017-05-26T04:06:55.535Z,16.28
2017-05-26T04:09:23.866Z,15.58
2017-05-26T04:11:51.417Z,16.73
2017-05-26T04:14:18.941Z,15.58
2017-05-26T04:16:47.332Z,14.73
2017-05-26T04:19:14.841Z,13.78
2017-05-26T04:21:43.120Z,14.43
2017-05-26T04:24:11.416Z,18.23
2017-05-26T04:26:39.809Z,18.72
2017-05-26T04:29:08.103Z,17.23
2017-05-26T04:31:36.413Z,15.82
2017-05-26T04:34:04.709Z,21.07
2017-05-26T04:36:33.044Z,15.73
2017-05-26T04:39:00.556Z,16.40
2017-05-26T04:41:28.851Z,15.95
2017-05-26T04:43:57.170Z,16.05
2017-05-26T04:46:25.476Z,15.35
2017-05-26T04:48:53.007Z,15.33
2017-05-26T04:51:21.359Z,24.65
2017-05-26T04:53:49.144Z,16.03
2017-05-26T04:56:16.652Z,16.05
2017-05-26T04:58:44.378Z,15.45
2017-05-26T05:01:12.611Z,16.80
2017-05-26T05:03:40.136Z,16.92
2017-05-26T05:06:08.408Z,18.82
2017-05-26T05:08:36.233Z,16.93
2017-05-26T05:11:04.588Z,19.03
2017-05-26T05:13:32.100Z,17.93
2017-05-26T05:15:59.626Z,18.40
2017-05-26T05:18:27.923Z,17.57
2017-05-26T05:20:56.290Z,16.85
2017-05-26T05:23:24.877Z,15.32
2017-05-26T05:25:52.403Z,16.95
2017-05-26T05:28:20.995Z,18.07
2017-05-26T05:30:48.568Z,36.08
2017-05-26T05:33:16.860Z,34.67
2017-05-26T05:35:44.393Z,36.30
2017-05-26T05:38:12.183Z,34.63
2017-05-26T05:40:40.724Z,29.47
2017-05-26T05:43:09.028Z,28.68
2017-05-26T05:45:36.596Z,29.18
2017-05-26T05:48:04.100Z,26.93
2017-05-26T05:50:31.615Z,32.90
2017-05-26T05:52:59.900Z,30.65
2017-05-26T05:55:27.500Z,26.02
2017-05-26T05:57:55.773Z,27.98
2017-05-26T06:00:24.072Z,27.48
2017-05-26T06:02:52.344Z,28.58
2017-05-26T06:05:20.707Z,27.90
2017-05-26T06:07:48.256Z,25.10
2017-05-26T06:10:16.752Z,28.28
2017-05-26T06:12:44.607Z,28.42
2017-05-26T06:15:12.367Z,29.27
2017-05-26T06:17:40.663Z,24.40
2017-05-26T06:20:08.163Z,30.15
2017-05-26T06:22:35.667Z,25.70
2017-05-26T06:25:03.519Z,31.27
2017-05-26T06:27:31.820Z,27.20
2017-05-26T06:29:59.353Z,24.63
2017-05-26T06:32:28.538Z,29.00
2017-05-26T06:34:56.152Z,31.93
2017-05-26T06:37:23.736Z,30.07
2017-05-26T06:39:51.526Z,24.28
2017-05-26T06:42:19.337Z,23.43
2017-05-26T06:44:46.968Z,25.93
2017-05-26T06:47:14.471Z,26.63
2017-05-26T06:49:42.812Z,23.17
2017-05-26T06:52:10.544Z,18.03
2017-05-26T06:54:38.071Z,20.78
2017-05-26T06:57:05.579Z,21.18
2017-05-26T06:59:33.083Z,21.88
2017-05-26T07:02:00.611Z,20.30
2017-05-26T07:04:28.939Z,24.72
2017-05-26T07:06:57.279Z,22.07
2017-05-26T07:09:25.804Z,19.78
2017-05-26T07:11:53.312Z,21.47
2017-05-26T07:14:21.843Z,24.72
2017-05-26T07:16:50.119Z,20.38
2017-05-26T07:19:17.647Z,19.77
2017-05-26T07:21:45.947Z,19.48
2017-05-26T07:24:13.455Z,19.00
2017-05-26T07:26:41.957Z,18.17
2017-05-26T07:29:09.466Z,16.70
2017-05-26T07:31:37.781Z,14.43
2017-05-26T07:34:06.150Z,16.55
2017-05-26T07:36:33.684Z,18.47
2017-05-26T07:39:02.230Z,17.15
2017-05-26T07:41:30.024Z,15.90
2017-05-26T07:43:57.552Z,17.93
2017-05-26T07:46:25.841Z,15.55
2017-05-26T07:48:54.504Z,16.30
2017-05-26T07:51:22.788Z,16.35
2017-05-26T07:53:51.083Z,15.40
2017-05-26T07:56:19.356Z,13.50
2017-05-26T07:58:46.874Z,15.22
2017-05-26T08:01:15.230Z,13.65
2017-05-26T08:03:43.552Z,11.72
2017-05-26T08:06:11.107Z,17.05
2017-05-26T08:08:38.629Z,11.43
2017-05-26T08:11:06.252Z,11.80
2017-05-26T08:13:33.756Z,12.22
2017-05-26T08:16:02.076Z,15.68
2017-05-26T08:18:30.379Z,15.35
2017-05-26T08:20:58.180Z,14.13
2017-05-26T08:23:25.695Z,10.58
2017-05-26T08:25:53.199Z,12.55
2017-05-26T08:28:21.523Z,15.72
2017-05-26T08:30:49.814Z,13.47
2017-05-26T08:33:17.413Z,13.80
2017-05-26T08:35:45.263Z,10.35
2017-05-26T08:38:13.537Z,11.33
2017-05-26T08:40:41.127Z,11.22
2017-05-26T08:43:08.658Z,13.13
2017-05-26T08:45:36.524Z,12.80
2017-05-26T08:48:04.283Z,17.07
2017-05-26T08:50:32.638Z,11.45
2017-05-26T08:53:00.210Z,13.80
2017-05-26T08:55:27.746Z,18.37
2017-05-26T08:57:56.080Z,15.52
2017-05-26T09:00:23.587Z,15.67
2017-05-26T09:02:51.200Z,13.62
2017-05-26T09:05:18.771Z,13.32
2017-05-26T09:07:46.296Z,10.72
2017-05-26T09:10:14.631Z,12.20
2017-05-26T09:12:42.948Z,12.23
2017-05-26T09:15:10.502Z,12.73
2017-05-26T09:17:37.999Z,11.77
2017-05-26T09:20:05.544Z,18.07
2017-05-26T09:22:33.044Z,14.30
2017-05-26T09:25:00.767Z,19.12
2017-05-26T09:27:29.112Z,14.07
2017-05-26T09:29:57.383Z,13.22
2017-05-26T09:32:24.927Z,14.65
2017-05-26T09:34:52.494Z,13.88
2017-05-26T09:37:20.252Z,15.60
2017-05-26T09:39:48.526Z,19.10
2017-05-26T09:42:17.108Z,17.85
2017-05-26T09:44:44.628Z,17.25
2017-05-26T09:47:12.175Z,15.00
2017-05-26T09:49:40.720Z,17.95
2017-05-26T09:52:09.064Z,17.35
2017-05-26T09:54:36.620Z,20.07
2017-05-26T09:57:04.395Z,17.35
2017-05-26T09:59:32.159Z,22.55
2017-05-26T10:01:59.779Z,25.62
2017-05-26T10:04:27.300Z,20.77
2017-05-26T10:06:54.828Z,22.98
2017-05-26T10:09:22.351Z,22.78
2017-05-26T10:11:50.152Z,20.67
2017-05-26T10:14:17.711Z,23.47
2017-05-26T10:16:45.221Z,21.68
2017-05-26T10:19:12.753Z,21.27
2017-05-26T10:21:41.015Z,25.82
2017-05-26T10:24:08.588Z,22.40
2017-05-26T10:26:36.144Z,23.90
2017-05-26T10:29:03.692Z,22.27
2017-05-26T10:31:31.264Z,26.10
2017-05-26T10:33:58.771Z,18.48
2017-05-26T10:36:27.056Z,17.63
2017-05-26T10:38:54.853Z,19.27
2017-05-26T10:41:22.381Z,16.02
2017-05-26T10:43:50.767Z,18.30
2017-05-26T10:46:19.161Z,15.47
2017-05-26T10:48:46.739Z,14.33
2017-05-26T10:51:15.271Z,13.00
2017-05-26T10:53:42.834Z,12.23
2017-05-26T10:56:11.104Z,15.70
2017-05-26T10:58:39.432Z,13.83
2017-05-26T11:01:06.960Z,14.57
2017-05-26T11:03:35.261Z,13.22
2017-05-26T11:06:02.795Z,12.05
2017-05-26T11:08:31.182Z,12.78
2017-05-26T11:10:59.648Z,14.40
2017-05-26T11:13:27.156Z,11.73
2017-05-26T11:15:55.483Z,11.52
2017-05-26T11:18:23.067Z,11.15
2017-05-26T11:20:50.699Z,12.02
2017-05-26T11:23:18.252Z,11.87
2017-05-26T11:25:45.862Z,12.85
2017-05-26T11:28:13.415Z,12.80
2017-05-26T11:30:41.707Z,11.12
2017-05-26T11:33:09.258Z,10.37
2017-05-26T11:35:37.581Z,10.07
2017-05-26T11:38:05.118Z,11.40
2017-05-26T11:40:33.436Z,10.75
2017-05-26T11:43:01.379Z,11.90
2017-05-26T11:45:28.934Z,10.50
2017-05-26T11:47:56.444Z,10.65
2017-05-26T11:50:24.232Z,11.28
2017-05-26T11:52:51.775Z,11.93
2017-05-26T11:55:19.345Z,12.43
2017-05-26T11:57:46.876Z,13.30
2017-05-26T12:00:14.668Z,13.52
2017-05-26T12:02:42.980Z,12.17
2017-05-26T12:05:10.515Z,12.85
2017-05-26T12:07:38.092Z,12.82
2017-05-26T12:10:05.947Z,14.32
2017-05-26T12:12:33.493Z,13.12
2017-05-26T12:15:01.000Z,15.02
2017-05-26T12:17:28.531Z,14.30
2017-05-26T12:19:56.061Z,12.78
2017-05-26T12:22:24.327Z,13.62
2017-05-26T12:24:52.903Z,12.28
2017-05-26T12:27:20.767Z,12.55
2017-05-26T12:29:49.091Z,13.05
2017-05-26T12:32:16.916Z,14.93
2017-05-26T12:34:45.488Z,13.78
2017-05-26T12:37:13.019Z,15.32
2017-05-26T12:39:40.655Z,14.98
2017-05-26T12:42:08.241Z,13.53
2017-05-26T12:44:35.764Z,11.67
2017-05-26T12:47:04.404Z,11.75
2017-05-26T12:49:32.700Z,11.72
2017-05-26T12:52:01.060Z,13.48
2017-05-26T12:54:29.636Z,12.32
2017-05-26T12:56:57.980Z,11.12
2017-05-26T12:59:26.313Z,9.10
2017-05-26T13:01:54.580Z,9.27
2017-05-26T13:04:22.889Z,9.57
2017-05-26T13:06:51.328Z,8.77
2017-05-26T13:09:18.903Z,8.72
2017-05-26T13:11:46.448Z,7.35
2017-05-26T13:14:14.737Z,8.20
2017-05-26T13:16:43.585Z,9.35
2017-05-26T13:19:11.933Z,9.37
2017-05-26T13:21:39.483Z,9.08
2017-05-26T13:24:07.043Z,8.13
2017-05-26T13:26:35.332Z,8.20
2017-05-26T13:29:03.620Z,7.57
2017-05-26T13:31:31.123Z,6.48
2017-05-26T13:33:58.720Z,7.13
2017-05-26T13:36:26.240Z,8.18
2017-05-26T13:38:53.815Z,8.83
2017-05-26T13:41:22.103Z,7.27
2017-05-26T13:43:50.621Z,6.26
2017-05-26T13:46:18.932Z,4.90
2017-05-26T13:48:47.249Z,4.55
2017-05-26T13:51:14.776Z,4.52
2017-05-26T13:53:42.316Z,4.90
2017-05-26T13:56:10.862Z,5.68
2017-05-26T13:58:39.173Z,7.18
2017-05-26T14:01:07.473Z,4.28
2017-05-26T14:03:35.076Z,3.85
2017-05-26T14:06:03.350Z,3.45
2017-05-26T14:08:30.936Z,3.77
2017-05-26T14:10:58.448Z,3.82
2017-05-26T14:13:26.936Z,4.43
2017-05-26T14:15:55.531Z,4.47
2017-05-26T14:18:23.080Z,3.80
2017-05-26T14:20:50.633Z,5.88
2017-05-26T14:23:18.943Z,6.05
2017-05-26T14:25:46.511Z,4.65
2017-05-26T14:28:14.771Z,5.15
2017-05-26T14:30:42.272Z,4.55
2017-05-26T14:33:09.787Z,4.30
2017-05-26T14:35:37.345Z,4.43
2017-05-26T14:38:05.173Z,3.97
2017-05-26T14:40:32.725Z,5.30
2017-05-26T14:43:01.084Z,4.20
2017-05-26T14:45:28.628Z,6.62
2017-05-26T14:47:56.205Z,5.93
2017-05-26T14:50:23.795Z,5.57
2017-05-26T14:52:52.060Z,4.73
2017-05-26T14:55:19.612Z,5.25
2017-05-26T14:57:47.159Z,4.27
2017-05-26T15:00:14.675Z,4.38
2017-05-26T15:02:42.232Z,6.97
2017-05-26T15:05:09.793Z,6.18
2017-05-26T15:07:38.071Z,6.08
2017-05-26T15:10:05.568Z,5.78
2017-05-26T15:12:33.067Z,5.22
2017-05-26T15:15:00.589Z,5.27
2017-05-26T15:17:28.851Z,5.13
2017-05-26T15:19:57.159Z,6.42
2017-05-26T15:22:24.675Z,5.05
2017-05-26T15:24:52.230Z,5.00
2017-05-26T15:27:19.806Z,5.90
2017-05-26T15:29:48.384Z,5.68
2017-05-26T15:32:16.800Z,6.12
2017-05-26T15:34:44.296Z,5.80
2017-05-26T15:37:12.087Z,5.33
2017-05-26T15:39:40.664Z,5.05
2017-05-26T15:42:08.992Z,6.23
2017-05-26T15:44:36.612Z,4.62
2017-05-26T15:47:04.107Z,4.23
2017-05-26T15:49:32.438Z,4.60
2017-05-26T15:51:59.959Z,5.65
2017-05-26T15:54:28.220Z,5.60
2017-05-26T15:56:56.184Z,4.65
2017-05-26T15:59:24.707Z,4.97
2017-05-26T16:01:53.015Z,5.08
2017-05-26T16:04:21.303Z,7.23
2017-05-26T16:06:48.828Z,7.48
2017-05-26T16:09:17.139Z,4.65
2017-05-26T16:11:44.647Z,5.12
2017-05-26T16:14:12.516Z,5.08
2017-05-26T16:16:40.814Z,5.33
2017-05-26T16:19:08.357Z,5.40
2017-05-26T16:21:35.884Z,4.95
2017-05-26T16:24:03.408Z,5.50
2017-05-26T16:26:30.965Z,4.73
2017-05-26T16:28:59.224Z,3.83
2017-05-26T16:31:27.055Z,4.25
2017-05-26T16:33:54.563Z,6.73
2017-05-26T16:36:22.383Z,3.95
2017-05-26T16:38:49.949Z,4.37
2017-05-26T16:41:17.472Z,4.08
2017-05-26T16:43:45.037Z,4.15
2017-05-26T16:46:12.808Z,5.33
2017-05-26T16:48:40.336Z,5.03
2017-05-26T16:51:08.127Z,4.68
2017-05-26T16:53:35.732Z,4.50
2017-05-26T16:56:03.243Z,5.10
2017-05-26T16:58:30.804Z,8.70
2017-05-26T17:00:58.320Z,4.78
2017-05-26T17:03:25.843Z,4.57
2017-05-26T17:05:53.441Z,4.57
2017-05-26T17:08:21.732Z,6.13
2017-05-26T17:10:50.137Z,6.12
2017-05-26T17:13:18.443Z,4.85
2017-05-26T17:15:46.259Z,5.18
2017-05-26T17:18:13.781Z,6.12
2017-05-26T17:20:41.283Z,5.17
2017-05-26T17:23:08.856Z,5.18
2017-05-26T17:25:36.360Z,4.97
2017-05-26T17:28:04.671Z,7.35
2017-05-26T17:30:32.984Z,5.82
2017-05-26T17:33:01.248Z,5.18
2017-05-26T17:35:29.134Z,6.55
2017-05-26T17:37:57.419Z,6.10
2017-05-26T17:40:24.927Z,4.93
2017-05-26T17:42:53.245Z,5.60
2017-05-26T17:45:20.792Z,6.65
2017-05-26T17:47:49.058Z,5.00
2017-05-26T17:50:17.334Z,7.12
2017-05-26T17:52:44.847Z,7.52
2017-05-26T17:55:13.104Z,6.30
2017-05-26T17:57:41.389Z,7.33
2017-05-26T18:00:08.887Z,5.78
2017-05-26T18:02:36.774Z,5.33
2017-05-26T18:05:04.340Z,5.93
2017-05-26T18:07:31.839Z,4.82
2017-05-26T18:09:59.359Z,5.47
2017-05-26T18:12:28.145Z,6.30
2017-05-26T18:14:55.660Z,5.73
2017-05-26T18:17:23.923Z,5.72
2017-05-26T18:19:52.305Z,6.68
2017-05-26T18:22:19.867Z,6.87
2017-05-26T18:24:48.212Z,6.03
2017-05-26T18:27:16.492Z,7.28
2017-05-26T18:29:44.082Z,7.02
2017-05-26T18:32:11.596Z,6.98
2017-05-26T18:34:39.866Z,6.30
2017-05-26T18:37:07.400Z,5.55
2017-05-26T18:39:35.665Z,6.32
2017-05-26T18:42:03.955Z,6.48
2017-05-26T18:44:32.564Z,6.55
2017-05-26T18:47:00.888Z,5.68
2017-05-26T18:49:29.195Z,5.95
2017-05-26T18:51:56.984Z,7.02
2017-05-26T18:54:24.556Z,6.97
2017-05-26T18:56:52.051Z,7.53
2017-05-26T18:59:19.856Z,5.97
2017-05-26T19:01:47.401Z,6.28
2017-05-26T19:04:15.665Z,6.08
2017-05-26T19:06:43.952Z,6.70
2017-05-26T19:09:11.487Z,7.00
2017-05-26T19:11:39.094Z,6.25
2017-05-26T19:14:07.404Z,7.27
2017-05-26T19:16:34.900Z,6.33
2017-05-26T19:19:03.230Z,5.92
2017-05-26T19:21:30.731Z,5.70
2017-05-26T19:23:59.337Z,8.48
2017-05-26T19:26:27.904Z,6.57
2017-05-26T19:28:56.221Z,6.58
2017-05-26T19:31:24.487Z,6.35
2017-05-26T19:33:51.987Z,6.60
2017-05-26T19:36:19.533Z,8.18
2017-05-26T19:38:47.072Z,6.45
2017-05-26T19:41:15.651Z,6.73
2017-05-26T19:43:43.213Z,6.77
2017-05-26T19:46:10.763Z,7.77
2017-05-26T19:48:38.356Z,7.45
2017-05-26T19:51:05.860Z,7.02
2017-05-26T19:53:33.729Z,6.00
2017-05-26T19:56:02.077Z,6.48
2017-05-26T19:58:29.619Z,8.35
2017-05-26T20:00:57.112Z,8.90
2017-05-26T20:03:24.957Z,10.80
2017-05-26T20:05:53.311Z,12.83
2017-05-26T20:08:21.616Z,11.88
2017-05-26T20:10:49.201Z,11.58
2017-05-26T20:13:17.463Z,9.60
2017-05-26T20:15:45.793Z,9.67
2017-05-26T20:18:13.323Z,9.38
2017-05-26T20:20:41.852Z,12.75
2017-05-26T20:23:10.135Z,8.17
2017-05-26T20:25:38.394Z,8.20
2017-05-26T20:28:05.959Z,12.05
2017-05-26T20:30:34.578Z,7.53
2017-05-26T20:33:02.859Z,8.32
2017-05-26T20:35:30.361Z,7.57
2017-05-26T20:37:57.925Z,8.22
2017-05-26T20:40:25.796Z,8.48
2017-05-26T20:42:54.110Z,9.33
2017-05-26T20:45:21.964Z,9.73
2017-05-26T20:47:49.459Z,9.37
2017-05-26T20:50:16.980Z,10.35
2017-05-26T20:52:44.491Z,13.57
2017-05-26T20:55:12.046Z,11.75
2017-05-26T20:57:39.829Z,15.38
2017-05-26T21:00:07.689Z,10.95
2017-05-26T21:02:36.051Z,10.43
2017-05-26T21:05:03.551Z,10.65
2017-05-26T21:07:31.072Z,9.98
2017-05-26T21:09:58.616Z,11.38
2017-05-26T21:12:26.499Z,9.40
2017-05-26T21:14:54.800Z,9.78
2017-05-26T21:17:23.064Z,9.48
2017-05-26T21:19:51.379Z,11.58
2017-05-26T21:22:18.927Z,12.72
2017-05-26T21:24:46.747Z,17.07
2017-05-26T21:27:15.017Z,16.40
2017-05-26T21:29:42.592Z,18.15
2017-05-26T21:32:10.895Z,18.30
2017-05-26T21:34:38.395Z,17.72
2017-05-26T21:37:05.919Z,24.07
2017-05-26T21:39:34.195Z,16.23
2017-05-26T21:42:01.724Z,19.57
2017-05-26T21:44:29.995Z,18.95
2017-05-26T21:46:57.768Z,19.37
2017-05-26T21:49:25.277Z,18.60
2017-05-26T21:51:52.779Z,19.43
2017-05-26T21:54:21.328Z,20.77
2017-05-26T21:56:49.092Z,23.60
2017-05-26T21:59:16.616Z,19.47
2017-05-26T22:01:44.888Z,19.97
2017-05-26T22:04:12.451Z,20.47
2017-05-26T22:06:40.760Z,18.58
2017-05-26T22:09:08.268Z,18.38
2017-05-26T22:11:36.556Z,22.24
2017-05-26T22:14:04.832Z,19.85
2017-05-26T22:16:33.150Z,15.05
2017-05-26T22:19:01.717Z,14.55
2017-05-26T22:21:30.062Z,15.17
2017-05-26T22:23:58.376Z,16.75
2017-05-26T22:26:25.871Z,18.03
2017-05-26T22:28:54.232Z,15.88
2017-05-26T22:31:22.340Z,12.56
2017-05-26T22:33:50.039Z,13.95
2017-05-26T22:36:18.344Z,14.63
2017-05-26T22:38:46.642Z,15.07
2017-05-26T22:41:14.335Z,12.18
2017-05-26T22:43:41.898Z,13.67
2017-05-26T22:46:09.456Z,14.28
2017-05-26T22:48:37.034Z,10.27
2017-05-26T22:51:04.564Z,11.75
2017-05-26T22:53:32.137Z,10.78
2017-05-26T22:55:59.723Z,10.95
2017-05-26T22:58:27.991Z,12.37
2017-05-26T23:00:55.495Z,12.22
2017-05-26T23:03:23.822Z,11.63
2017-05-26T23:05:52.114Z,12.82
2017-05-26T23:08:19.639Z,13.67
2017-05-26T23:10:47.147Z,11.58
2017-05-26T23:13:14.725Z,13.97
2017-05-26T23:15:42.273Z,11.78
2017-05-26T23:18:09.779Z,11.35
2017-05-26T23:20:37.615Z,11.27
2017-05-26T23:23:05.883Z,11.32
2017-05-26T23:25:33.486Z,12.48
2017-05-26T23:28:01.787Z,12.72
2017-05-26T23:30:29.337Z,14.33
2017-05-26T23:32:57.607Z,15.25
2017-05-26T23:35:25.951Z,14.62
2017-05-26T23:37:53.550Z,12.02
2017-05-26T23:40:21.824Z,14.30
2017-05-26T23:42:50.115Z,14.58
2017-05-26T23:45:17.620Z,11.88
2017-05-26T23:47:45.201Z,15.32
2017-05-26T23:50:13.532Z,14.48
2017-05-26T23:52:41.807Z,12.88
2017-05-26T23:55:10.388Z,13.37
2017-05-26T23:57:38.148Z,12.02
